PWSweather.com
Personal Weather Stations
Station Observations
KWAVA98665
Vancouver, WA 98665

Vancouver, WA 98665

Lat: 45.6827589, Lon: -122.63116100000002

Elevation: 262

Station Type: Davis VP2

http://www.bobsvp2wd.net

Latest ConditionsUpdated 2:00:01 PM PST Saturday, Feb 23, 2019
Currently Today's Max Today's Min Today's Average
Temperature 43.8°F6.6°C 45.2°F7.3°C 37.0°F2.8°C 39.4°F4.1°C
Dew Point 39.0°F3.9°C 39.7°F4.3°C 35.7°F2.1°C 37.2°F2.9°C
Winds 3.5 mph E5.6 kmh E 3.5 mph -5.6 kmh - - 0.3 mph 0.5 kmh
Wind Gusts 6.9 mph11.1 kmh 6.9 mph11.1 kmh - -
Humidity 83% 95% 78% 92%
Pressure 30.10 in1019.3 mb 30.14 in1020.7 mb 30.08 in1018.6 mb -
Precipitation - 0.01 in0.3 mm - -
Hour Temp Dew Point Humidity Winds Wind Gusts Pressure Precip Precip Rate Daily Precip Total
02:00 PM 43.8°F6.6°C 39.0°F3.9°C 83% 3.5 mph E5.6 kmh E 6.9 mph11.1 kmh 30.10 in1019.3 mb - 0.00 in0.0 mm 0.01 in0.3 mm
01:30 PM 44.6°F7.0°C 38.2°F3.4°C 78% 1.2 mph ESE1.9 kmh ESE 1.2 mph1.9 kmh 30.11 in1019.6 mb - 0.00 in0.0 mm 0.01 in0.3 mm
01:00 PM 44.7°F7.1°C 38.9°F3.8°C 80% 2.3 mph E3.7 kmh E 4.6 mph7.4 kmh 30.11 in1019.6 mb - 0.00 in0.0 mm 0.01 in0.3 mm
12:30 PM 45.2°F7.3°C 39.7°F4.3°C 81% Calm Calm -- 30.12 in1020.0 mb - 0.00 in0.0 mm 0.01 in0.3 mm
12:00 PM 43.1°F6.2°C 38.9°F3.8°C 85% Calm Calm -- 30.13 in1020.3 mb - 0.00 in0.0 mm 0.01 in0.3 mm
11:30 AM 42.5°F5.8°C 38.9°F3.8°C 87% Calm Calm -- 30.14 in1020.7 mb - 0.00 in0.0 mm 0.01 in0.3 mm
11:00 AM 41.8°F5.4°C 39.1°F3.9°C 90% Calm Calm -- 30.14 in1020.7 mb - 0.00 in0.0 mm 0.01 in0.3 mm
10:30 AM 40.9°F4.9°C 38.8°F3.8°C 92% Calm Calm -- 30.13 in1020.3 mb - 0.00 in0.0 mm 0.01 in0.3 mm
10:00 AM 40.2°F4.6°C 38.9°F3.8°C 95% 1.2 mph SE1.9 kmh SE 2.3 mph3.7 kmh 30.13 in1020.3 mb - 0.00 in0.0 mm 0.01 in0.3 mm
09:30 AM 39.6°F4.2°C 38.3°F3.5°C 95% Calm Calm -- 30.14 in1020.7 mb - 0.00 in0.0 mm 0.01 in0.3 mm
09:00 AM 39.2°F4.0°C 37.9°F3.3°C 95% Calm Calm -- 30.14 in1020.7 mb - 0.00 in0.0 mm 0.01 in0.3 mm
08:30 AM 38.8°F3.8°C 37.5°F3.1°C 95% Calm Calm 1.2 mph1.9 kmh 30.14 in1020.7 mb - 0.01 in0.3 mm 0.01 in0.3 mm
08:00 AM 38.3°F3.5°C 37.0°F2.8°C 95% Calm Calm -- 30.14 in1020.7 mb - 0.01 in0.3 mm 0.01 in0.3 mm
07:30 AM 37.5°F3.1°C 36.2°F2.3°C 95% Calm Calm -- 30.13 in1020.3 mb - 0.00 in0.0 mm 0.00 in0.0 mm
07:00 AM 37.1°F2.8°C 35.8°F2.1°C 95% Calm Calm -- 30.13 in1020.3 mb - 0.00 in0.0 mm 0.00 in0.0 mm
06:30 AM 37.0°F2.8°C 35.7°F2.1°C 95% Calm Calm -- 30.12 in1020.0 mb - 0.00 in0.0 mm 0.00 in0.0 mm
06:00 AM 37.3°F2.9°C 36.0°F2.2°C 95% Calm Calm -- 30.12 in1020.0 mb - 0.00 in0.0 mm 0.00 in0.0 mm
05:30 AM 37.3°F2.9°C 36.0°F2.2°C 95% Calm Calm -- 30.12 in1020.0 mb - 0.00 in0.0 mm 0.00 in0.0 mm
05:00 AM 37.4°F3.0°C 36.1°F2.3°C 95% Calm Calm -- 30.11 in1019.6 mb - 0.00 in0.0 mm 0.00 in0.0 mm
04:30 AM 37.4°F3.0°C 36.1°F2.3°C 95% Calm Calm -- 30.11 in1019.6 mb - 0.00 in0.0 mm 0.00 in0.0 mm
04:00 AM 37.4°F3.0°C 36.1°F2.3°C 95% Calm Calm -- 30.11 in1019.6 mb - 0.00 in0.0 mm 0.00 in0.0 mm
03:30 AM 37.4°F3.0°C 36.1°F2.3°C 95% Calm Calm -- 30.11 in1019.6 mb - 0.00 in0.0 mm 0.00 in0.0 mm
03:00 AM 37.3°F2.9°C 36.0°F2.2°C 95% Calm Calm -- 30.11 in1019.6 mb - 0.00 in0.0 mm 0.00 in0.0 mm
02:30 AM 37.3°F2.9°C 36.0°F2.2°C 95% Calm Calm -- 30.11 in1019.6 mb - 0.00 in0.0 mm 0.00 in0.0 mm
02:00 AM 37.3°F2.9°C 35.7°F2.1°C 94% 1.2 mph SE1.9 kmh SE 1.2 mph1.9 kmh 30.09 in1019.0 mb - 0.00 in0.0 mm 0.00 in0.0 mm
01:30 AM 37.5°F3.1°C 35.9°F2.2°C 94% Calm Calm -- 30.10 in1019.3 mb - 0.00 in0.0 mm 0.00 in0.0 mm
01:00 AM 37.7°F3.2°C 36.4°F2.4°C 95% Calm Calm -- 30.09 in1019.0 mb - 0.00 in0.0 mm 0.00 in0.0 mm
12:30 AM 37.8°F3.2°C 36.2°F2.3°C 94% Calm Calm -- 30.08 in1018.6 mb - 0.00 in0.0 mm 0.00 in0.0 mm
12:00 AM 37.9°F3.3°C 36.3°F2.4°C 94% Calm Calm -- 30.08 in1018.6 mb - 0.00 in0.0 mm 0.00 in0.0 mm